createdAt,value
2018-06-02T00:00:33.059Z,79.60
2018-06-02T00:05:36.277Z,81.47
2018-06-02T00:10:38.798Z,79.20
2018-06-02T00:15:41.277Z,77.07
2018-06-02T00:20:43.828Z,75.93
2018-06-02T00:25:46.370Z,78.17
2018-06-02T00:30:48.831Z,82.40
2018-06-02T00:35:52.065Z,77.87
2018-06-02T00:40:54.520Z,82.57
2018-06-02T00:45:56.975Z,78.20
2018-06-02T00:50:59.425Z,77.80
2018-06-02T00:56:02.643Z,80.03
2018-06-02T01:01:05.161Z,80.20
2018-06-02T01:06:07.645Z,80.27
2018-06-02T01:11:10.133Z,80.00
2018-06-02T01:16:12.613Z,78.37
2018-06-02T01:21:15.064Z,77.90
2018-06-02T01:26:17.613Z,80.83
2018-06-02T01:31:20.110Z,77.53
2018-06-02T01:36:22.566Z,74.13
2018-06-02T01:41:25.800Z,70.03
2018-06-02T01:46:28.317Z,73.93
2018-06-02T01:51:30.777Z,68.67
2018-06-02T01:56:33.993Z,67.73
2018-06-02T02:01:36.505Z,66.40
2018-06-02T02:06:38.962Z,67.33
2018-06-02T02:11:42.189Z,69.73
2018-06-02T02:16:45.514Z,66.23
2018-06-02T02:21:48.024Z,66.17
2018-06-02T02:26:51.426Z,67.70
2018-06-02T02:31:53.892Z,66.07
2018-06-02T02:36:57.101Z,64.57
2018-06-02T02:41:59.617Z,62.33
2018-06-02T02:47:02.114Z,57.97
2018-06-02T02:52:04.619Z,61.90
2018-06-02T02:57:07.077Z,58.83
2018-06-02T03:02:10.302Z,58.80
2018-06-02T03:07:12.803Z,56.93
2018-06-02T03:12:15.301Z,57.00
2018-06-02T03:17:17.752Z,52.10
2018-06-02T03:22:20.974Z,47.80
2018-06-02T03:27:24.214Z,48.87
2018-06-02T03:32:26.683Z,50.07
2018-06-02T03:37:29.893Z,50.67
2018-06-02T03:42:33.121Z,50.93
2018-06-02T03:47:35.621Z,49.93
2018-06-02T03:52:38.105Z,46.63
2018-06-02T03:57:40.603Z,45.93
2018-06-02T04:02:43.068Z,44.87
2018-06-02T04:07:45.502Z,42.07
2018-06-02T04:12:47.957Z,39.60
2018-06-02T04:17:51.191Z,39.50
2018-06-02T04:22:53.640Z,38.17
2018-06-02T04:27:57.609Z,35.57
2018-06-02T04:33:00.061Z,32.53
2018-06-02T04:38:03.318Z,32.43
2018-06-02T04:43:05.805Z,31.00
2018-06-02T04:48:08.273Z,28.70
2018-06-02T04:53:11.486Z,27.17
2018-06-02T04:58:14.805Z,27.33
2018-06-02T05:03:18.021Z,24.00
2018-06-02T05:08:20.469Z,26.77
2018-06-02T05:13:22.929Z,27.17
2018-06-02T05:18:25.373Z,23.53
2018-06-02T05:23:28.617Z,25.07
2018-06-02T05:28:31.073Z,25.80
2018-06-02T05:33:34.296Z,26.07
2018-06-02T05:38:37.538Z,25.67
2018-06-02T05:43:40.026Z,23.07
2018-06-02T05:48:42.515Z,23.07
2018-06-02T05:53:45.009Z,21.77
2018-06-02T05:58:47.482Z,22.37
2018-06-02T06:03:50.709Z,23.33
2018-06-02T06:08:53.168Z,25.87
2018-06-02T06:13:57.117Z,28.33
2018-06-02T06:19:00.361Z,34.87
2018-06-02T06:24:02.814Z,39.80
2018-06-02T06:29:06.029Z,42.27
2018-06-02T06:34:09.248Z,41.73
2018-06-02T06:39:11.833Z,45.60
2018-06-02T06:44:14.209Z,44.47
2018-06-02T06:49:17.430Z,47.70
2018-06-02T06:54:20.661Z,46.57
2018-06-02T06:59:23.127Z,44.83
2018-06-02T07:04:26.375Z,46.63
2018-06-02T07:09:28.821Z,45.43
2018-06-02T07:14:31.276Z,42.63
2018-06-02T07:19:33.736Z,45.50
2018-06-02T07:24:36.193Z,44.53
2018-06-02T07:29:40.165Z,46.13
2018-06-02T07:34:42.650Z,44.80
2018-06-02T07:39:45.098Z,44.73
2018-06-02T07:44:47.624Z,45.63
2018-06-02T07:49:50.949Z,45.87
2018-06-02T07:54:54.148Z,44.67
2018-06-02T07:59:56.666Z,45.43
2018-06-02T08:04:59.114Z,45.93
2018-06-02T08:10:01.652Z,45.97
2018-06-02T08:15:04.100Z,48.70
2018-06-02T08:20:06.645Z,46.10
2018-06-02T08:25:09.097Z,46.90
2018-06-02T08:30:12.659Z,46.17
2018-06-02T08:35:15.126Z,48.07
2018-06-02T08:40:18.412Z,49.87
2018-06-02T08:45:21.872Z,44.00
2018-06-02T08:50:24.334Z,47.33
2018-06-02T08:55:27.640Z,45.60
2018-06-02T09:00:30.137Z,45.80
2018-06-02T09:05:32.597Z,44.13
2018-06-02T09:10:35.157Z,45.23
2018-06-02T09:15:37.892Z,46.50
2018-06-02T09:20:41.402Z,43.23
2018-06-02T09:25:45.068Z,45.67
2018-06-02T09:30:48.327Z,46.17
2018-06-02T09:35:50.799Z,44.83
2018-06-02T09:40:53.248Z,42.23
2018-06-02T09:45:55.697Z,40.60
2018-06-02T09:50:59.984Z,41.23
2018-06-02T09:56:03.933Z,43.47
2018-06-02T10:01:06.381Z,43.83
2018-06-02T10:06:08.856Z,45.67
2018-06-02T10:11:11.417Z,48.63
2018-06-02T10:16:13.869Z,45.60
2018-06-02T10:21:16.382Z,45.33
2018-06-02T10:26:19.713Z,45.13
2018-06-02T10:31:22.161Z,45.27
2018-06-02T10:36:24.736Z,44.47
2018-06-02T10:41:27.213Z,45.20
2018-06-02T10:46:29.716Z,43.33
2018-06-02T10:51:32.196Z,45.13
2018-06-02T10:56:34.657Z,48.13
2018-06-02T11:01:37.916Z,46.43
2018-06-02T11:06:41.097Z,42.60
2018-06-02T11:11:47.831Z,44.33
2018-06-02T11:16:50.363Z,44.30
2018-06-02T11:21:53.695Z,44.50
2018-06-02T11:26:56.143Z,44.47
2018-06-02T11:31:58.640Z,46.03
2018-06-02T11:37:02.590Z,45.57
2018-06-02T11:42:05.849Z,44.17
2018-06-02T11:47:08.309Z,43.77
2018-06-02T11:52:10.771Z,46.63
2018-06-02T11:57:14.015Z,45.73
2018-06-02T12:02:16.493Z,44.57
2018-06-02T12:07:18.972Z,41.20
2018-06-02T12:12:22.219Z,39.70
2018-06-02T12:17:24.679Z,40.27
2018-06-02T12:22:28.172Z,41.90
2018-06-02T12:32:59.154Z,42.47
2018-06-02T12:38:01.591Z,42.73
2018-06-02T12:43:04.812Z,40.67
2018-06-02T12:48:07.269Z,40.00
2018-06-02T12:53:09.837Z,40.70
2018-06-02T12:58:12.288Z,40.50
2018-06-02T13:03:32.100Z,40.40
2018-06-02T13:08:34.536Z,42.00
2018-06-02T13:13:36.990Z,51.20
2018-06-02T13:18:39.467Z,52.23
2018-06-02T13:23:41.966Z,52.07
2018-06-02T13:28:46.101Z,51.17
2018-06-02T13:33:48.565Z,52.97
2018-06-02T13:38:51.781Z,53.47
2018-06-02T13:43:56.073Z,50.73
2018-06-02T13:48:58.580Z,52.80
2018-06-02T13:54:02.533Z,53.13
2018-06-02T13:59:05.887Z,56.23
2018-06-02T14:04:08.334Z,53.73
2018-06-02T14:09:11.565Z,45.80
2018-06-02T14:14:14.016Z,46.17
2018-06-02T14:19:17.246Z,44.23
2018-06-02T14:24:20.484Z,40.17
2018-06-02T14:29:22.976Z,37.67
2018-06-02T14:34:25.515Z,36.87
2018-06-02T14:39:27.925Z,34.87
2018-06-02T14:44:31.152Z,34.63
2018-06-02T14:49:34.385Z,34.33
2018-06-02T14:54:36.841Z,35.47
2018-06-02T14:59:39.372Z,34.97
2018-06-02T15:04:42.360Z,34.10
2018-06-02T15:09:45.577Z,35.87
2018-06-02T15:14:48.033Z,37.67
2018-06-02T15:19:51.250Z,37.83
2018-06-02T15:24:53.701Z,37.37
2018-06-02T15:30:14.880Z,41.23
2018-06-02T15:35:18.830Z,40.37
2018-06-02T15:40:21.278Z,40.77
2018-06-02T15:45:23.738Z,41.97
2018-06-02T15:50:26.217Z,39.77
2018-06-02T15:55:28.665Z,40.67
2018-06-02T16:00:31.205Z,37.97
2018-06-02T16:05:33.697Z,39.27
2018-06-02T16:10:36.144Z,39.13
2018-06-02T16:15:38.683Z,37.57
2018-06-02T16:20:41.157Z,40.27
2018-06-02T16:25:44.438Z,44.90
2018-06-02T16:30:46.911Z,39.77
2018-06-02T16:35:49.372Z,39.53
2018-06-02T16:40:51.816Z,42.37
2018-06-02T16:45:54.295Z,40.13
2018-06-02T16:50:56.761Z,43.23
2018-06-02T16:56:00.932Z,42.73
2018-06-02T17:01:03.382Z,42.10
2018-06-02T17:06:08.426Z,42.17
2018-06-02T17:16:18.889Z,44.30
2018-06-02T17:21:23.669Z,43.03
2018-06-02T17:26:26.895Z,44.53
2018-06-02T17:31:29.350Z,44.67
2018-06-02T17:36:32.608Z,44.27
2018-06-02T17:41:35.073Z,47.17
2018-06-02T17:46:43.121Z,39.87
2018-06-02T17:51:48.034Z,40.20
2018-06-02T17:56:50.480Z,36.40
2018-06-02T18:01:52.945Z,34.90
2018-06-02T18:06:55.650Z,34.20
2018-06-02T18:11:58.127Z,34.67
2018-06-02T18:17:01.341Z,35.17
2018-06-02T18:22:04.002Z,35.30
2018-06-02T18:27:19.146Z,35.83
2018-06-02T18:32:21.608Z,35.03
2018-06-02T18:37:24.831Z,35.10
2018-06-02T18:42:28.051Z,39.30
2018-06-02T18:47:30.676Z,37.07
2018-06-02T18:52:33.122Z,38.43
2018-06-02T18:57:36.418Z,38.10
2018-06-02T19:02:38.868Z,38.93
2018-06-02T19:07:47.981Z,40.53
2018-06-02T19:12:51.252Z,40.73
2018-06-02T19:17:53.697Z,39.10
2018-06-02T19:22:56.173Z,38.03
2018-06-02T19:27:59.504Z,38.23
2018-06-02T19:33:02.282Z,39.83
2018-06-02T19:38:04.719Z,38.80
2018-06-02T19:43:07.332Z,36.23
2018-06-02T19:48:09.811Z,37.80
2018-06-02T19:53:12.237Z,35.73
2018-06-02T19:58:14.816Z,36.37
2018-06-02T20:03:17.445Z,36.93
2018-06-02T20:08:19.902Z,37.77
2018-06-02T20:13:22.503Z,35.40
2018-06-02T20:18:25.072Z,37.43
2018-06-02T20:23:27.505Z,39.57
2018-06-02T20:28:30.041Z,38.10
2018-06-02T20:33:32.489Z,39.17
2018-06-02T20:38:34.943Z,44.63
2018-06-02T20:43:37.393Z,38.67
2018-06-02T20:48:40.610Z,38.50
2018-06-02T20:53:43.829Z,37.63
2018-06-02T20:58:46.284Z,39.13
2018-06-02T21:03:50.283Z,37.20
2018-06-02T21:08:52.744Z,36.30
2018-06-02T21:13:55.949Z,35.03
2018-06-02T21:18:58.428Z,35.37
2018-06-02T21:24:01.977Z,34.33
2018-06-02T21:29:04.426Z,35.07
2018-06-02T21:34:07.162Z,31.33
2018-06-02T21:39:14.626Z,31.83
2018-06-02T21:44:32.218Z,32.23
2018-06-02T21:49:35.422Z,33.13
2018-06-02T21:54:37.931Z,33.43
2018-06-02T21:59:41.376Z,33.67
2018-06-02T22:10:16.090Z,33.50
2018-06-02T22:15:19.318Z,33.63
2018-06-02T22:20:22.620Z,33.03
2018-06-02T22:25:25.060Z,34.40
2018-06-02T22:30:27.570Z,33.23
2018-06-02T22:35:30.021Z,33.63
2018-06-02T22:40:32.470Z,33.87
2018-06-02T22:45:34.922Z,33.80
2018-06-02T22:50:37.552Z,32.27
2018-06-02T22:55:42.595Z,33.57
2018-06-02T23:00:45.047Z,34.03
2018-06-02T23:05:47.498Z,33.37
2018-06-02T23:10:50.859Z,34.17
2018-06-02T23:15:53.366Z,34.40
2018-06-02T23:20:55.921Z,33.40
2018-06-02T23:25:58.363Z,33.67
2018-06-02T23:31:03.552Z,32.63
2018-06-02T23:36:06.069Z,34.90
2018-06-02T23:41:09.273Z,34.67
2018-06-02T23:46:12.493Z,34.00
2018-06-02T23:51:14.956Z,35.57
2018-06-02T23:56:18.180Z,33.43
